Time;durP1;ratioP1;P1;durP2;ratioP2;P2;SDS_P1;SDS_P2;PMS_P1;PMS_P2;Temp;Humidity;BMP_temperature;BMP_pressure;BME280_temperature;BME280_humidity;BME280_pressure;Samples;Min_cycle;Max_cycle;Signal;HPM_P1;HPM_P2
2022/09/11 00:02:17;;;;;;;;;;;;;;;;;;5016824;28;19914;-26
2022/09/11 00:04:43;;;;;;;;;;;;;;;;;;5017115;28;19920;-26
2022/09/11 00:07:09;;;;;;;;;;;;;;;;;;5017350;28;19936;-27
2022/09/11 00:09:35;;;;;;;;;;;;;;;;;;5017498;28;20329;-27
2022/09/11 00:12:01;;;;;;;;;;;;;;;;;;5016905;28;19925;-27
2022/09/11 00:14:28;;;;;;;;;;;;;;;;;;5017192;28;20257;-27
2022/09/11 00:16:54;;;;;;;;;;;;;;;;;;5017101;28;20409;-26
2022/09/11 00:19:20;;;;;;;;;;;;;;;;;;5017082;28;19948;-27
2022/09/11 00:21:48;;;;;;;;;;;;;;;;;;5016683;28;19914;-27
2022/09/11 00:24:14;;;;;;;;;;;;;;;;;;5016682;28;20348;-27
2022/09/11 00:26:41;;;;;;;;;;;;;;;;;;5017223;28;20341;-27
2022/09/11 00:29:07;;;;;;;;;;;;;;;;;;5016533;28;19917;-27
2022/09/11 00:31:33;;;;;;;;;;;;;;;;;;5017120;28;19920;-27
2022/09/11 00:33:59;;;;;;;;;;;;;;;;;;5016534;28;19960;-27
2022/09/11 00:36:25;;;;;;;;;;;;;;;;;;5016716;28;20000;-27
2022/09/11 00:38:51;;;;;;;;;;;;;;;;;;5016120;28;20396;-27
2022/09/11 00:41:17;;;;;;;;;;;;;;;;;;5016649;28;19914;-27
2022/09/11 00:43:43;;;;;;;;;;;;;;;;;;5016558;28;19925;-27
2022/09/11 00:46:09;;;;;;;;;;;;;;;;;;5016643;28;19909;-27
2022/09/11 00:48:35;;;;;;;;;;;;;;;;;;5016204;28;19940;-27
2022/09/11 00:51:02;;;;;;;;;;;;;;;;;;5016232;28;19913;-27
2022/09/11 00:53:29;;;;;;;;;;;;;;;;;;5016165;28;19909;-27
2022/09/11 00:55:55;;;;;;;;;;;;;;;;;;5016125;28;19917;-27
2022/09/11 00:58:21;;;;;;;;;;;;;;;;;;5016121;28;19929;-27
2022/09/11 01:00:47;;;;;;;;;;;;;;;;;;5016128;28;19944;-27
2022/09/11 01:03:13;;;;;;;;;;;;;;;;;;5015956;28;19927;-27
2022/09/11 01:05:40;;;;;;;;;;;;;;;;;;5016004;28;19945;-27
2022/09/11 01:08:06;;;;;;;;;;;;;;;;;;5016162;28;19918;-27
2022/09/11 01:10:32;;;;;;;;;;;;;;;;;;5015984;28;19971;-27
2022/09/11 01:12:59;;;;;;;;;;;;;;;;;;5015995;28;20012;-27
2022/09/11 01:15:25;;;;;;;;;;;;;;;;;;5016207;28;19913;-27
2022/09/11 01:17:52;;;;;;;;;;;;;;;;;;5016381;28;19922;-27
2022/09/11 01:20:18;;;;;;;;;;;;;;;;;;5016094;28;20332;-27
2022/09/11 01:22:44;;;;;;;;;;;;;;;;;;5015906;28;19924;-27
2022/09/11 01:25:11;;;;;;;;;;;;;;;;;;5015762;28;19910;-27
2022/09/11 01:27:36;;;;;;;;;;;;;;;;;;5015868;28;20008;-26
2022/09/11 01:30:02;;;;;;;;;;;;;;;;;;5015619;28;20004;-26
2022/09/11 01:32:28;;;;;;;;;;;;;;;;;;5015919;28;19914;-26
2022/09/11 01:34:54;;;;;;;;;;;;;;;;;;5016153;28;19920;-26
2022/09/11 01:37:20;;;;;;;;;;;;;;;;;;5015474;28;20244;-26
2022/09/11 01:39:46;;;;;;;;;;;;;;;;;;5015520;28;19918;-26
2022/09/11 01:42:13;;;;;;;;;;;;;;;;;;5015390;28;19921;-26
2022/09/11 01:44:39;;;;;;;;;;;;;;;;;;5015524;28;20214;-27
2022/09/11 01:47:05;;;;;;;;;;;;;;;;;;5015350;28;19924;-27
2022/09/11 01:49:31;;;;;;;;;;;;;;;;;;5015092;28;19913;-26
2022/09/11 01:51:57;;;;;;;;;;;;;;;;;;5015221;28;19925;-26
2022/09/11 01:54:23;;;;;;;;;;;;;;;;;;5016094;28;19936;-27
2022/09/11 01:56:50;;;;;;;;;;;;;;;;;;5015343;28;19953;-27
2022/09/11 01:59:16;;;;;;;;;;;;;;;;;;5015267;28;19933;-27
2022/09/11 02:01:42;;;;;;;;;;;;;;;;;;5015528;28;19924;-27
2022/09/11 02:04:09;;;;;;;;;;;;;;;;;;5015115;28;20004;-27
2022/09/11 02:06:35;;;;;;;;;;;;;;;;;;5015506;28;20255;-27
2022/09/11 02:09:01;;;;;;;;;;;;;;;;;;5015163;28;19913;-28
2022/09/11 02:11:28;;;;;;;;;;;;;;;;;;5015155;28;19924;-28
2022/09/11 02:13:54;;;;;;;;;;;;;;;;;;5015052;28;19978;-28
2022/09/11 02:16:21;;;;;;;;;;;;;;;;;;5015167;28;19917;-27
2022/09/11 02:18:47;;;;;;;;;;;;;;;;;;5015141;28;20028;-27
2022/09/11 02:21:13;;;;;;;;;;;;;;;;;;5015635;28;19988;-28
2022/09/11 02:23:39;;;;;;;;;;;;;;;;;;5015288;28;20261;-27
2022/09/11 02:26:05;;;;;;;;;;;;;;;;;;5015130;28;19917;-27
2022/09/11 02:28:31;;;;;;;;;;;;;;;;;;5014959;28;20349;-27
2022/09/11 02:30:57;;;;;;;;;;;;;;;;;;5015835;28;19999;-27
2022/09/11 02:33:23;;;;;;;;;;;;;;;;;;5014935;28;20012;-27
2022/09/11 02:35:50;;;;;;;;;;;;;;;;;;5015277;28;19914;-27
2022/09/11 02:38:16;;;;;;;;;;;;;;;;;;5014976;28;19913;-27
2022/09/11 02:40:42;;;;;;;;;;;;;;;;;;5015223;28;19924;-27
2022/09/11 02:43:09;;;;;;;;;;;;;;;;;;5014845;28;20333;-27
2022/09/11 02:45:34;;;;;;;;;;;;;;;;;;5015163;28;20265;-27
2022/09/11 02:48:00;;;;;;;;;;;;;;;;;;5014816;28;19913;-27
2022/09/11 02:50:27;;;;;;;;;;;;;;;;;;5015460;28;19968;-27
2022/09/11 02:52:52;;;;;;;;;;;;;;;;;;5014728;28;19913;-27
2022/09/11 02:55:18;;;;;;;;;;;;;;;;;;5014841;28;19909;-28
2022/09/11 02:57:44;;;;;;;;;;;;;;;;;;5014774;28;19959;-27
2022/09/11 03:00:10;;;;;;;;;;;;;;;;;;5014770;28;20004;-28
2022/09/11 03:02:36;;;;;;;;;;;;;;;;;;5017564;28;20007;-28
2022/09/11 03:05:02;;;;;;;;;;;;;;;;;;5018584;28;19910;-28
2022/09/11 03:07:28;;;;;;;;;;;;;;;;;;5018208;28;20352;-28
2022/09/11 03:09:54;;;;;;;;;;;;;;;;;;5018150;28;19913;-28
2022/09/11 03:12:20;;;;;;;;;;;;;;;;;;5018969;28;19917;-28
2022/09/11 03:14:47;;;;;;;;;;;;;;;;;;5018649;28;19960;-28
2022/09/11 03:17:13;;;;;;;;;;;;;;;;;;5018054;28;19914;-28
2022/09/11 03:19:39;;;;;;;;;;;;;;;;;;5018279;28;19944;-28
2022/09/11 03:22:05;;;;;;;;;;;;;;;;;;5017886;28;20004;-28
2022/09/11 03:24:31;;;;;;;;;;;;;;;;;;5018189;28;19968;-28
2022/09/11 03:26:57;;;;;;;;;;;;;;;;;;5018390;28;19913;-27
2022/09/11 03:29:23;;;;;;;;;;;;;;;;;;5017695;28;20307;-27
2022/09/11 03:31:49;;;;;;;;;;;;;;;;;;5017674;28;19917;-27
2022/09/11 03:34:16;;;;;;;;;;;;;;;;;;5017694;28;20328;-27
2022/09/11 03:36:42;;;;;;;;;;;;;;;;;;5018421;28;20337;-27
2022/09/11 03:39:08;;;;;;;;;;;;;;;;;;5017633;28;19910;-27
2022/09/11 03:41:34;;;;;;;;;;;;;;;;;;5017563;28;20379;-27
2022/09/11 03:44:00;;;;;;;;;;;;;;;;;;5017399;28;19980;-27
2022/09/11 03:46:26;;;;;;;;;;;;;;;;;;5017986;28;19913;-27
2022/09/11 03:48:52;;;;;;;;;;;;;;;;;;5017375;28;19921;-26
2022/09/11 03:51:19;;;;;;;;;;;;;;;;;;5017583;28;19972;-27
2022/09/11 03:53:45;;;;;;;;;;;;;;;;;;5017504;28;19910;-26
2022/09/11 03:56:13;;;;;;;;;;;;;;;;;;5017800;28;19913;-27
2022/09/11 03:58:39;;;;;;;;;;;;;;;;;;5017557;28;19935;-27
2022/09/11 04:01:05;;;;;;;;;;;;;;;;;;5016244;28;20341;-27
2022/09/11 04:03:31;;;;;;;;;;;;;;;;;;5016944;28;19932;-27
2022/09/11 04:05:57;;;;;;;;;;;;;;;;;;5017110;28;19972;-26
2022/09/11 04:08:23;;;;;;;;;;;;;;;;;;5016927;28;19921;-27
2022/09/11 04:10:49;;;;;;;;;;;;;;;;;;5017530;28;19914;-27
2022/09/11 04:13:15;;;;;;;;;;;;;;;;;;5017036;28;20259;-27
2022/09/11 04:15:41;;;;;;;;;;;;;;;;;;5017115;28;19925;-28
2022/09/11 04:18:07;;;;;;;;;;;;;;;;;;5016804;28;19909;-27
2022/09/11 04:20:33;;;;;;;;;;;;;;;;;;5016845;28;19918;-27
2022/09/11 04:22:59;;;;;;;;;;;;;;;;;;5016676;28;19949;-27
2022/09/11 04:25:25;;;;;;;;;;;;;;;;;;5016774;28;20337;-27
2022/09/11 04:27:51;;;;;;;;;;;;;;;;;;5017179;28;19913;-27
2022/09/11 04:30:18;;;;;;;;;;;;;;;;;;5016637;28;20420;-27
2022/09/11 04:32:45;;;;;;;;;;;;;;;;;;5016746;28;20277;-27
2022/09/11 04:35:11;;;;;;;;;;;;;;;;;;5016765;28;19914;-27
2022/09/11 04:37:37;;;;;;;;;;;;;;;;;;5016789;28;20248;-27
2022/09/11 04:40:03;;;;;;;;;;;;;;;;;;5016738;28;19914;-28
2022/09/11 04:42:28;;;;;;;;;;;;;;;;;;5016314;28;19920;-27
2022/09/11 04:44:55;;;;;;;;;;;;;;;;;;5016422;28;19909;-27
2022/09/11 04:47:21;;;;;;;;;;;;;;;;;;5016301;28;19914;-27
2022/09/11 04:49:48;;;;;;;;;;;;;;;;;;5016241;28;20068;-27
2022/09/11 04:52:14;;;;;;;;;;;;;;;;;;5016113;28;19913;-27
2022/09/11 04:54:40;;;;;;;;;;;;;;;;;;5016245;28;20055;-27
2022/09/11 04:57:07;;;;;;;;;;;;;;;;;;5016490;28;19991;-27
2022/09/11 04:59:34;;;;;;;;;;;;;;;;;;5016086;28;19928;-26
2022/09/11 05:02:00;;;;;;;;;;;;;;;;;;5016024;28;19920;-27
2022/09/11 05:04:26;;;;;;;;;;;;;;;;;;5015929;28;19996;-28
2022/09/11 05:06:52;;;;;;;;;;;;;;;;;;5016073;28;19910;-27
2022/09/11 05:09:18;;;;;;;;;;;;;;;;;;5015952;28;19917;-28
2022/09/11 05:11:44;;;;;;;;;;;;;;;;;;5015875;28;19928;-27
2022/09/11 05:14:11;;;;;;;;;;;;;;;;;;5015837;28;19909;-27
2022/09/11 05:16:37;;;;;;;;;;;;;;;;;;5015789;28;20363;-27
2022/09/11 05:19:03;;;;;;;;;;;;;;;;;;5015780;28;19914;-27
2022/09/11 05:21:29;;;;;;;;;;;;;;;;;;5015683;28;20048;-27
2022/09/11 05:23:56;;;;;;;;;;;;;;;;;;5015216;28;19972;-27
2022/09/11 05:26:22;;;;;;;;;;;;;;;;;;5015657;28;19913;-27
2022/09/11 05:28:48;;;;;;;;;;;;;;;;;;5015586;28;19920;-28
2022/09/11 05:31:15;;;;;;;;;;;;;;;;;;5016247;28;19937;-27
2022/09/11 05:33:41;;;;;;;;;;;;;;;;;;5015773;28;20272;-27
2022/09/11 05:36:07;;;;;;;;;;;;;;;;;;5015846;28;19968;-28
2022/09/11 05:38:33;;;;;;;;;;;;;;;;;;5015488;28;20288;-27
2022/09/11 05:40:59;;;;;;;;;;;;;;;;;;5015547;28;20016;-27
2022/09/11 05:43:25;;;;;;;;;;;;;;;;;;5015704;28;20313;-27
2022/09/11 05:45:51;;;;;;;;;;;;;;;;;;5015480;28;19913;-27
2022/09/11 05:48:18;;;;;;;;;;;;;;;;;;5015367;28;19928;-28
2022/09/11 05:50:44;;;;;;;;;;;;;;;;;;5015420;28;19913;-27
2022/09/11 05:53:10;;;;;;;;;;;;;;;;;;5015307;28;19971;-28
2022/09/11 05:55:36;;;;;;;;;;;;;;;;;;5015913;28;19925;-28
2022/09/11 05:58:02;;;;;;;;;;;;;;;;;;5015387;28;19910;-28
2022/09/11 06:00:29;;;;;;;;;;;;;;;;;;5015297;28;20000;-28
2022/09/11 06:02:55;;;;;;;;;;;;;;;;;;5014997;28;19921;-27
2022/09/11 06:05:21;;;;;;;;;;;;;;;;;;5015320;28;20004;-27
2022/09/11 06:07:47;;;;;;;;;;;;;;;;;;5015135;28;19913;-27
2022/09/11 06:10:13;;;;;;;;;;;;;;;;;;5015227;28;19909;-27
2022/09/11 06:12:39;;;;;;;;;;;;;;;;;;5015133;28;19914;-28
2022/09/11 06:15:05;;;;;;;;;;;;;;;;;;5015197;28;20360;-27
2022/09/11 06:17:31;;;;;;;;;;;;;;;;;;5015178;28;19913;-27
2022/09/11 06:19:58;;;;;;;;;;;;;;;;;;5015159;28;19910;-27
2022/09/11 06:22:24;;;;;;;;;;;;;;;;;;5015298;28;20292;-27
2022/09/11 06:24:51;;;;;;;;;;;;;;;;;;5015364;28;19909;-27
2022/09/11 06:27:17;;;;;;;;;;;;;;;;;;5015322;28;19913;-27
2022/09/11 06:29:43;;;;;;;;;;;;;;;;;;5014989;28;19928;-27
2022/09/11 06:32:09;;;;;;;;;;;;;;;;;;5015272;28;19914;-27
2022/09/11 06:34:36;;;;;;;;;;;;;;;;;;5014958;28;19914;-27
2022/09/11 06:37:02;;;;;;;;;;;;;;;;;;5017499;28;20001;-26
2022/09/11 06:39:28;;;;;;;;;;;;;;;;;;5019006;28;20402;-26
2022/09/11 06:41:54;;;;;;;;;;;;;;;;;;5018837;28;19917;-27
2022/09/11 06:44:21;;;;;;;;;;;;;;;;;;5019271;28;20282;-27
2022/09/11 06:46:47;;;;;;;;;;;;;;;;;;5018641;28;19914;-26
2022/09/11 06:49:13;;;;;;;;;;;;;;;;;;5018806;28;19927;-26
2022/09/11 06:51:39;;;;;;;;;;;;;;;;;;5018780;28;20315;-27
2022/09/11 06:54:05;;;;;;;;;;;;;;;;;;5018710;28;20217;-27
2022/09/11 06:56:31;;;;;;;;;;;;;;;;;;5019006;28;19913;-27
2022/09/11 06:58:57;;;;;;;;;;;;;;;;;;5018403;28;20229;-27
2022/09/11 07:01:23;;;;;;;;;;;;;;;;;;5018323;28;20422;-27
2022/09/11 07:03:49;;;;;;;;;;;;;;;;;;5018035;28;19932;-27
2022/09/11 07:06:15;;;;;;;;;;;;;;;;;;5018270;28;19917;-27
2022/09/11 07:08:41;;;;;;;;;;;;;;;;;;5018134;28;19964;-27
2022/09/11 07:11:07;;;;;;;;;;;;;;;;;;5018158;28;19937;-27
2022/09/11 07:13:33;;;;;;;;;;;;;;;;;;5018306;28;19920;-27
2022/09/11 07:15:59;;;;;;;;;;;;;;;;;;5018322;28;20004;-27
2022/09/11 07:18:25;;;;;;;;;;;;;;;;;;5018281;28;20328;-27
2022/09/11 07:20:51;;;;;;;;;;;;;;;;;;5017027;28;19923;-26
2022/09/11 07:23:18;;;;;;;;;;;;;;;;;;5017891;28;19917;-26
2022/09/11 07:25:44;;;;;;;;;;;;;;;;;;5018418;28;19917;-27
2022/09/11 07:28:11;;;;;;;;;;;;;;;;;;5017784;28;19925;-26
2022/09/11 07:30:37;;;;;;;;;;;;;;;;;;5018079;28;20296;-27
2022/09/11 07:33:03;;;;;;;;;;;;;;;;;;5017619;28;19928;-26
2022/09/11 07:35:29;;;;;;;;;;;;;;;;;;5017680;28;19913;-27
2022/09/11 07:37:55;;;;;;;;;;;;;;;;;;5017884;28;19972;-27
2022/09/11 07:40:21;;;;;;;;;;;;;;;;;;5018181;28;20325;-26
2022/09/11 07:42:47;;;;;;;;;;;;;;;;;;5017762;28;19968;-27
2022/09/11 07:45:13;;;;;;;;;;;;;;;;;;5017825;28;20371;-27
2022/09/11 07:47:40;;;;;;;;;;;;;;;;;;5017017;28;20303;-27
2022/09/11 07:50:05;;;;;;;;;;;;;;;;;;5017339;28;19957;-26
2022/09/11 07:52:31;;;;;;;;;;;;;;;;;;5017284;28;19913;-27
2022/09/11 07:55:00;;;;;;;;;;;;;;;;;;5017394;28;19910;-27
2022/09/11 07:57:26;;;;;;;;;;;;;;;;;;5017539;28;20009;-27
2022/09/11 07:59:52;;;;;;;;;;;;;;;;;;5017307;28;19909;-27
2022/09/11 08:02:18;;;;;;;;;;;;;;;;;;5017381;28;19975;-27
2022/09/11 08:04:44;;;;;;;;;;;;;;;;;;5017426;28;19921;-27
2022/09/11 08:07:10;;;;;;;;;;;;;;;;;;5017630;28;20399;-26
2022/09/11 08:09:36;;;;;;;;;;;;;;;;;;5017566;28;19960;-26
2022/09/11 08:12:02;;;;;;;;;;;;;;;;;;5016934;28;19913;-26
2022/09/11 08:14:29;;;;;;;;;;;;;;;;;;5016992;28;19910;-27
2022/09/11 08:16:55;;;;;;;;;;;;;;;;;;5016943;28;20295;-27
2022/09/11 08:19:21;;;;;;;;;;;;;;;;;;5017434;28;19944;-27
2022/09/11 08:21:47;;;;;;;;;;;;;;;;;;5017129;28;19937;-28
2022/09/11 08:24:13;;;;;;;;;;;;;;;;;;5017407;28;19917;-28
2022/09/11 08:26:39;;;;;;;;;;;;;;;;;;5017033;28;19914;-27
2022/09/11 08:29:05;;;;;;;;;;;;;;;;;;5016893;28;19925;-28
2022/09/11 08:31:32;;;;;;;;;;;;;;;;;;5016942;28;20439;-28
2022/09/11 08:33:58;;;;;;;;;;;;;;;;;;5016828;28;19968;-27
2022/09/11 08:36:24;;;;;;;;;;;;;;;;;;5016818;28;20014;-27
2022/09/11 08:38:51;;;;;;;;;;;;;;;;;;5017358;28;19910;-27
2022/09/11 08:41:17;;;;;;;;;;;;;;;;;;5016456;28;19913;-27
2022/09/11 08:43:43;;;;;;;;;;;;;;;;;;5016400;28;19917;-27
2022/09/11 08:46:09;;;;;;;;;;;;;;;;;;5016958;28;20036;-27
2022/09/11 08:48:35;;;;;;;;;;;;;;;;;;5016249;28;19929;-27
2022/09/11 08:51:01;;;;;;;;;;;;;;;;;;5016258;28;19913;-27
2022/09/11 08:53:27;;;;;;;;;;;;;;;;;;5016456;28;20004;-28
2022/09/11 08:55:53;;;;;;;;;;;;;;;;;;5016497;28;20085;-27
2022/09/11 08:58:19;;;;;;;;;;;;;;;;;;5015794;28;19952;-26
2022/09/11 09:00:45;;;;;;;;;;;;;;;;;;5016398;28;19913;-26
2022/09/11 09:03:11;;;;;;;;;;;;;;;;;;5015849;28;19922;-27
2022/09/11 09:05:37;;;;;;;;;;;;;;;;;;5016319;28;19967;-27
2022/09/11 09:08:03;;;;;;;;;;;;;;;;;;5015978;28;20400;-27
2022/09/11 09:10:30;;;;;;;;;;;;;;;;;;5016294;28;19913;-27
2022/09/11 09:12:55;;;;;;;;;;;;;;;;;;5016098;28;19913;-27
2022/09/11 09:15:22;;;;;;;;;;;;;;;;;;5015939;28;20231;-27
2022/09/11 09:17:49;;;;;;;;;;;;;;;;;;5016100;28;20308;-27
2022/09/11 09:20:15;;;;;;;;;;;;;;;;;;5016091;28;20248;-27
2022/09/11 09:22:41;;;;;;;;;;;;;;;;;;5015941;28;19916;-27
2022/09/11 09:25:07;;;;;;;;;;;;;;;;;;5015791;28;19913;-27
2022/09/11 09:27:33;;;;;;;;;;;;;;;;;;5015769;28;19917;-28
2022/09/11 09:29:59;;;;;;;;;;;;;;;;;;5015961;28;20256;-27
2022/09/11 09:32:25;;;;;;;;;;;;;;;;;;5015864;28;19920;-27
2022/09/11 09:34:51;;;;;;;;;;;;;;;;;;5015949;28;19909;-27
2022/09/11 09:37:17;;;;;;;;;;;;;;;;;;5016349;28;19949;-28
2022/09/11 09:39:43;;;;;;;;;;;;;;;;;;5015599;28;19952;-27
2022/09/11 09:42:10;;;;;;;;;;;;;;;;;;5015469;28;20341;-27
2022/09/11 09:44:35;;;;;;;;;;;;;;;;;;5015488;28;19909;-27
2022/09/11 09:47:01;;;;;;;;;;;;;;;;;;5015708;28;19914;-28
2022/09/11 09:49:27;;;;;;;;;;;;;;;;;;5015705;28;19913;-27
2022/09/11 09:51:53;;;;;;;;;;;;;;;;;;5015363;28;19917;-28
2022/09/11 09:54:22;;;;;;;;;;;;;;;;;;5015387;28;19910;-28
2022/09/11 09:56:52;;;;;;;;;;;;;;;;;;5015647;28;19914;-27
2022/09/11 09:59:18;;;;;;;;;;;;;;;;;;5015354;28;20000;-27
2022/09/11 10:01:44;;;;;;;;;;;;;;;;;;5015582;28;19945;-28
2022/09/11 10:04:10;;;;;;;;;;;;;;;;;;5015137;28;20292;-28
2022/09/11 10:06:36;;;;;;;;;;;;;;;;;;5015230;28;19914;-27
2022/09/11 10:09:02;;;;;;;;;;;;;;;;;;5015523;28;19921;-28
2022/09/11 10:11:28;;;;;;;;;;;;;;;;;;5018353;28;20249;-27
2022/09/11 10:13:54;;;;;;;;;;;;;;;;;;5019133;28;19924;-28
2022/09/11 10:16:20;;;;;;;;;;;;;;;;;;5019192;28;19914;-27
2022/09/11 10:18:46;;;;;;;;;;;;;;;;;;5019772;28;19909;-27
2022/09/11 10:21:12;;;;;;;;;;;;;;;;;;5019116;28;19918;-27
2022/09/11 10:23:38;;;;;;;;;;;;;;;;;;5019290;28;19963;-27
2022/09/11 10:26:04;;;;;;;;;;;;;;;;;;5019341;28;20345;-27
2022/09/11 10:28:30;;;;;;;;;;;;;;;;;;5019183;28;19925;-27
2022/09/11 10:30:58;;;;;;;;;;;;;;;;;;5019234;28;20273;-27
2022/09/11 10:33:25;;;;;;;;;;;;;;;;;;5018839;28;19964;-27
2022/09/11 10:35:54;;;;;;;;;;;;;;;;;;5018869;28;20344;-27
2022/09/11 10:38:20;;;;;;;;;;;;;;;;;;5018790;28;20348;-27
2022/09/11 10:40:47;;;;;;;;;;;;;;;;;;5018750;28;19928;-27
2022/09/11 10:43:13;;;;;;;;;;;;;;;;;;5018645;28;19964;-27
2022/09/11 10:45:39;;;;;;;;;;;;;;;;;;5019475;28;19924;-27
2022/09/11 10:48:05;;;;;;;;;;;;;;;;;;5018817;28;19913;-27
2022/09/11 10:50:33;;;;;;;;;;;;;;;;;;5018870;28;20252;-27
2022/09/11 10:52:59;;;;;;;;;;;;;;;;;;5019295;28;19928;-28
2022/09/11 10:55:25;;;;;;;;;;;;;;;;;;5018818;28;19914;-28
2022/09/11 10:57:51;;;;;;;;;;;;;;;;;;5018437;28;19913;-27
2022/09/11 11:00:17;;;;;;;;;;;;;;;;;;5018704;28;20016;-27
2022/09/11 11:02:43;;;;;;;;;;;;;;;;;;5018158;28;20391;-27
2022/09/11 11:05:08;;;;;;;;;;;;;;;;;;5018566;28;19922;-27
2022/09/11 11:07:35;;;;;;;;;;;;;;;;;;5018497;28;19916;-27
2022/09/11 11:10:01;;;;;;;;;;;;;;;;;;5018163;28;19924;-26
2022/09/11 11:12:31;;;;;;;;;;;;;;;;;;5018369;28;19913;-28
2022/09/11 11:14:57;;;;;;;;;;;;;;;;;;5018202;28;19959;-27
2022/09/11 11:17:23;;;;;;;;;;;;;;;;;;5018061;28;19913;-27
2022/09/11 11:19:49;;;;;;;;;;;;;;;;;;5018354;28;19956;-27
2022/09/11 11:22:15;;;;;;;;;;;;;;;;;;5017387;28;19914;-27
2022/09/11 11:24:41;;;;;;;;;;;;;;;;;;5017941;28;19914;-27
2022/09/11 11:27:07;;;;;;;;;;;;;;;;;;5018787;28;19913;-27
2022/09/11 11:29:33;;;;;;;;;;;;;;;;;;5017766;28;20391;-27
2022/09/11 11:31:59;;;;;;;;;;;;;;;;;;5017714;28;19920;-27
2022/09/11 11:34:25;;;;;;;;;;;;;;;;;;5018334;28;19921;-27
2022/09/11 11:36:51;;;;;;;;;;;;;;;;;;5017703;28;20246;-27
2022/09/11 11:39:17;;;;;;;;;;;;;;;;;;5017610;28;19968;-27
2022/09/11 11:41:43;;;;;;;;;;;;;;;;;;5018151;28;19913;-26
2022/09/11 11:44:09;;;;;;;;;;;;;;;;;;5017432;28;19921;-26
2022/09/11 11:46:37;;;;;;;;;;;;;;;;;;5017491;28;19914;-27
2022/09/11 11:49:03;;;;;;;;;;;;;;;;;;5017367;28;19914;-27
2022/09/11 11:51:29;;;;;;;;;;;;;;;;;;5017979;28;19968;-27
2022/09/11 11:53:55;;;;;;;;;;;;;;;;;;5017581;28;20325;-27
2022/09/11 11:56:21;;;;;;;;;;;;;;;;;;5017317;28;19914;-27
2022/09/11 11:58:47;;;;;;;;;;;;;;;;;;5018061;28;19920;-27
2022/09/11 12:01:13;;;;;;;;;;;;;;;;;;5017482;28;20012;-28
2022/09/11 12:03:39;;;;;;;;;;;;;;;;;;5016875;28;19921;-27
2022/09/11 12:06:07;;;;;;;;;;;;;;;;;;5017394;28;19914;-26
2022/09/11 12:08:33;;;;;;;;;;;;;;;;;;5016990;28;19924;-27
2022/09/11 12:10:59;;;;;;;;;;;;;;;;;;5017053;28;19918;-26
2022/09/11 12:13:25;;;;;;;;;;;;;;;;;;5017141;28;19909;-26
2022/09/11 12:15:51;;;;;;;;;;;;;;;;;;5016928;28;19941;-27
2022/09/11 12:18:17;;;;;;;;;;;;;;;;;;5016863;28;19952;-27
2022/09/11 12:20:44;;;;;;;;;;;;;;;;;;5017206;28;19917;-27
2022/09/11 12:23:10;;;;;;;;;;;;;;;;;;5016769;28;19921;-27
2022/09/11 12:25:36;;;;;;;;;;;;;;;;;;5015857;28;19913;-27
2022/09/11 12:28:02;;;;;;;;;;;;;;;;;;5016973;28;19910;-27
2022/09/11 12:30:29;;;;;;;;;;;;;;;;;;5016977;28;20306;-27
2022/09/11 12:32:55;;;;;;;;;;;;;;;;;;5016897;28;19920;-27
2022/09/11 12:35:21;;;;;;;;;;;;;;;;;;5016948;28;19988;-27
2022/09/11 12:37:47;;;;;;;;;;;;;;;;;;5016619;28;20361;-27
2022/09/11 12:40:15;;;;;;;;;;;;;;;;;;5016789;28;19957;-27
2022/09/11 12:42:41;;;;;;;;;;;;;;;;;;5016452;28;19909;-27
2022/09/11 12:45:07;;;;;;;;;;;;;;;;;;5016991;28;19996;-27
2022/09/11 12:47:33;;;;;;;;;;;;;;;;;;5016392;28;19952;-27
2022/09/11 12:49:59;;;;;;;;;;;;;;;;;;5016345;28;19917;-27
2022/09/11 12:52:25;;;;;;;;;;;;;;;;;;5016295;28;19920;-27
2022/09/11 12:54:51;;;;;;;;;;;;;;;;;;5016628;28;20317;-27
2022/09/11 12:57:20;;;;;;;;;;;;;;;;;;5016260;28;19913;-28
2022/09/11 12:59:46;;;;;;;;;;;;;;;;;;5016467;28;20268;-27
2022/09/11 13:02:12;;;;;;;;;;;;;;;;;;5016450;28;19920;-27
2022/09/11 13:04:38;;;;;;;;;;;;;;;;;;5016141;28;19929;-28
2022/09/11 13:07:04;;;;;;;;;;;;;;;;;;5016114;28;19913;-28
2022/09/11 13:09:30;;;;;;;;;;;;;;;;;;5015977;28;19917;-27
2022/09/11 13:11:56;;;;;;;;;;;;;;;;;;5015024;28;19920;-27
2022/09/11 13:14:23;;;;;;;;;;;;;;;;;;5016250;28;20004;-28
2022/09/11 13:16:49;;;;;;;;;;;;;;;;;;5016204;28;19918;-28
2022/09/11 13:19:16;;;;;;;;;;;;;;;;;;5016162;28;20399;-28
2022/09/11 13:21:42;;;;;;;;;;;;;;;;;;5015849;28;19913;-27
2022/09/11 13:24:08;;;;;;;;;;;;;;;;;;5015705;28;19909;-28
2022/09/11 13:26:34;;;;;;;;;;;;;;;;;;5015750;28;19924;-27
2022/09/11 13:29:00;;;;;;;;;;;;;;;;;;5015962;28;20318;-27
2022/09/11 13:31:26;;;;;;;;;;;;;;;;;;5015954;28;20264;-27
2022/09/11 13:33:52;;;;;;;;;;;;;;;;;;5015861;28;19909;-27
2022/09/11 13:36:18;;;;;;;;;;;;;;;;;;5015624;28;19913;-27
2022/09/11 13:38:44;;;;;;;;;;;;;;;;;;5015568;28;20038;-27
2022/09/11 13:41:10;;;;;;;;;;;;;;;;;;5016157;28;19913;-27
2022/09/11 13:43:36;;;;;;;;;;;;;;;;;;5016284;28;19920;-28
2022/09/11 13:46:02;;;;;;;;;;;;;;;;;;5015370;28;19996;-28
2022/09/11 13:48:28;;;;;;;;;;;;;;;;;;5015413;28;20118;-28
2022/09/11 13:50:56;;;;;;;;;;;;;;;;;;5015465;28;19917;-27
2022/09/11 13:53:22;;;;;;;;;;;;;;;;;;5015429;28;19921;-28
2022/09/11 13:55:48;;;;;;;;;;;;;;;;;;5015359;28;19921;-28
2022/09/11 13:58:15;;;;;;;;;;;;;;;;;;5015642;28;19972;-27
2022/09/11 14:00:41;;;;;;;;;;;;;;;;;;5015652;28;19933;-27
2022/09/11 14:03:06;;;;;;;;;;;;;;;;;;5015173;28;19921;-27
2022/09/11 14:05:35;;;;;;;;;;;;;;;;;;5015878;28;20359;-27
2022/09/11 14:08:01;;;;;;;;;;;;;;;;;;5015296;28;19960;-28
2022/09/11 14:10:28;;;;;;;;;;;;;;;;;;5015197;28;20297;-28
2022/09/11 14:12:54;;;;;;;;;;;;;;;;;;5016264;28;19917;-27
2022/09/11 14:15:21;;;;;;;;;;;;;;;;;;5015240;28;19909;-27
2022/09/11 14:17:47;;;;;;;;;;;;;;;;;;5015193;28;19924;-28
2022/09/11 14:20:13;;;;;;;;;;;;;;;;;;5015214;28;19910;-27
2022/09/11 14:22:39;;;;;;;;;;;;;;;;;;5015094;28;20004;-28
2022/09/11 14:25:05;;;;;;;;;;;;;;;;;;5015165;28;19953;-27
2022/09/11 14:27:31;;;;;;;;;;;;;;;;;;5015121;28;19914;-28
2022/09/11 14:29:57;;;;;;;;;;;;;;;;;;5015017;28;19917;-27
2022/09/11 14:32:23;;;;;;;;;;;;;;;;;;5015006;28;19921;-27
2022/09/11 14:34:49;;;;;;;;;;;;;;;;;;5015037;28;20008;-27
2022/09/11 14:37:15;;;;;;;;;;;;;;;;;;5015266;28;19913;-27
2022/09/11 14:39:41;;;;;;;;;;;;;;;;;;5015294;28;19910;-27
2022/09/11 14:42:07;;;;;;;;;;;;;;;;;;5014955;28;19913;-27
2022/09/11 14:44:33;;;;;;;;;;;;;;;;;;5015190;28;20311;-27
2022/09/11 14:46:59;;;;;;;;;;;;;;;;;;5014951;28;20048;-27
2022/09/11 14:49:25;;;;;;;;;;;;;;;;;;5015083;28;20012;-27
2022/09/11 14:51:51;;;;;;;;;;;;;;;;;;5015357;28;20341;-26
2022/09/11 14:54:18;;;;;;;;;;;;;;;;;;5015099;28;19909;-27
2022/09/11 14:56:44;;;;;;;;;;;;;;;;;;5014038;28;19917;-27
2022/09/11 14:59:11;;;;;;;;;;;;;;;;;;5018740;28;19909;-27
2022/09/11 15:01:37;;;;;;;;;;;;;;;;;;5018355;28;19914;-27
2022/09/11 15:04:03;;;;;;;;;;;;;;;;;;5018093;28;19928;-27
2022/09/11 15:06:29;;;;;;;;;;;;;;;;;;5018308;28;19914;-27
2022/09/11 15:08:55;;;;;;;;;;;;;;;;;;5018211;28;19984;-27
2022/09/11 15:11:21;;;;;;;;;;;;;;;;;;5018223;28;19917;-26
2022/09/11 15:13:48;;;;;;;;;;;;;;;;;;5018183;28;19920;-27
2022/09/11 15:16:14;;;;;;;;;;;;;;;;;;5018464;28;19928;-26
2022/09/11 15:18:40;;;;;;;;;;;;;;;;;;5018058;28;20359;-27
2022/09/11 15:21:06;;;;;;;;;;;;;;;;;;5018609;28;19914;-27
2022/09/11 15:23:33;;;;;;;;;;;;;;;;;;5017853;28;19914;-27
2022/09/11 15:26:00;;;;;;;;;;;;;;;;;;5018247;28;20264;-27
2022/09/11 15:28:27;;;;;;;;;;;;;;;;;;5018155;28;20253;-27
2022/09/11 15:30:56;;;;;;;;;;;;;;;;;;5018142;28;19914;-27
2022/09/11 15:33:22;;;;;;;;;;;;;;;;;;5018047;28;20011;-27
2022/09/11 15:35:48;;;;;;;;;;;;;;;;;;5017771;28;20333;-27
2022/09/11 15:38:14;;;;;;;;;;;;;;;;;;5017760;28;19913;-27
2022/09/11 15:40:40;;;;;;;;;;;;;;;;;;5017627;28;19918;-27
2022/09/11 15:43:06;;;;;;;;;;;;;;;;;;5017586;28;19920;-28
2022/09/11 15:45:32;;;;;;;;;;;;;;;;;;5017602;28;19936;-28
2022/09/11 15:48:01;;;;;;;;;;;;;;;;;;5017810;28;19910;-28
2022/09/11 15:50:29;;;;;;;;;;;;;;;;;;5017678;28;19918;-27
2022/09/11 15:52:54;;;;;;;;;;;;;;;;;;5017454;28;19955;-27
2022/09/11 15:55:21;;;;;;;;;;;;;;;;;;5018008;28;20341;-28
2022/09/11 15:57:47;;;;;;;;;;;;;;;;;;5017649;28;20253;-27
2022/09/11 16:00:14;;;;;;;;;;;;;;;;;;5017626;28;19913;-27
2022/09/11 16:02:40;;;;;;;;;;;;;;;;;;5017171;28;19918;-27
2022/09/11 16:05:06;;;;;;;;;;;;;;;;;;5017501;28;19984;-27
2022/09/11 16:07:34;;;;;;;;;;;;;;;;;;5016472;28;20214;-27
2022/09/11 16:10:00;;;;;;;;;;;;;;;;;;5017052;28;20356;-27
2022/09/11 16:12:26;;;;;;;;;;;;;;;;;;5017023;28;19913;-27
2022/09/11 16:14:52;;;;;;;;;;;;;;;;;;5017052;28;19917;-27
2022/09/11 16:17:20;;;;;;;;;;;;;;;;;;5016997;28;19936;-27
2022/09/11 16:19:46;;;;;;;;;;;;;;;;;;5017225;28;19917;-28
2022/09/11 16:22:12;;;;;;;;;;;;;;;;;;5017379;28;19963;-27
2022/09/11 16:24:38;;;;;;;;;;;;;;;;;;5016856;28;19910;-27
2022/09/11 16:27:04;;;;;;;;;;;;;;;;;;5016811;28;19918;-27
2022/09/11 16:29:30;;;;;;;;;;;;;;;;;;5016663;28;20012;-27
2022/09/11 16:31:56;;;;;;;;;;;;;;;;;;5016630;28;20003;-27
2022/09/11 16:34:22;;;;;;;;;;;;;;;;;;5016914;28;19910;-27
2022/09/11 16:36:48;;;;;;;;;;;;;;;;;;5016747;28;19913;-26
2022/09/11 16:39:14;;;;;;;;;;;;;;;;;;5016617;28;20024;-27